WIDD METAR and TAF | Updated Today

WIDD METAR

Hang Nadim International Airport

Observation time: 25 min. ago

WIDD 080630Z 04012KT 9999 BKN014 31/25 Q1011 NOSIG

Need help? Read our tutorial on how to read METARs or read the parsed version below.

Hang Nadim International Airport (WIDD) METAR

  • Weather conditions on Wed, 08 Dec 2021 06:30:00 +0000 (25 min. ago):
  • Present conditions: Dry
  • Clouds: Broken sky at 427 meters
  • Visibility: Greater than 10 km
  • Wind: 40 degrees at 12 knots
  • Temperature: 31 celsius
  • Dew point: 25 celsius
  • Pressure: 1011 millibars
  • Remarks: None


Useful to know...

WIDD TAF

Hang Nadim International Airport

TAF WIDD 080500Z 0806/0906 03013KT 9999 SCT014 PROB30 TEMPO 0806/0808 RA
Observation time: 1:55 hr. ago
Need help? Read our tutorial on how to read TAFs or read the parsed version below.

Parsed version of TAF for Hang Nadim International Airport (WIDD)

  • From 08 December at 06:00 UTC, to day 09 of the month at 06:00 UTC
  • Clouds: Scattered at 427 meters
  • Visibility: Greater than 10 km
  • Wind: 30 degrees at 13
  • Expected to arise temporarily, from 08 December at 06:00 UTC, to day 08 of the month at 08:00 UTC
    Probability of 30%
  • Other: Rain